Jack C. Davis Observatory, Carson City, Nevada Weather observations

Data are for observation ending at time listed.
 Day   Time    Ave.   Ave.  Ave.  Vector   Max.   Stn.    Total    Solar   Ave.  
  of    of     Air    Rel.  Wind   Wind    Wind   Baro.  Precip.   Rad.    Soil  
Year   Day     Temp.  Hum.  Speed  Dir.    Gust   Pres.                    Temp. 
2026   (PST)    F      %     mph   deg.    mph     mb.     in.     W/m2     F   
------------------------------------------------------------------------------
 127    2:50   49.9    66    3.7   281      6.1   849.7    0.00       0    999.0
 127    3:00   50.3    65    2.7   284      4.5   849.7    0.00       0    999.0
 127    3:10   50.8    63    3.0   281      4.2   849.7    0.00       0    999.0
 127    3:20   49.5    67    3.8   273      5.6   849.7    0.00       0    999.0
 127    3:30   49.5    67    3.1   282      4.6   849.7    0.00       0    999.0
 127    3:40   49.6    66    3.6   280      5.0   849.7    0.00       0    999.0
 127    3:50   49.3    68    4.0   274      6.0   849.7    0.00       0    999.0
 127    4:00   48.8    69    3.2   281      5.0   849.7    0.00       0    999.0
 127    4:10   48.8    68    3.4   275      5.6   849.7    0.00       0    999.0
 127    4:20   49.0    66    1.7   309      4.0   849.7    0.00       0    999.0
 127    4:30   49.1    65    2.2   273      4.7   849.7    0.00       0    999.0
 127    4:40   48.2    68    2.1   263      5.0   849.7    0.00       0    999.0
 127    4:50   47.4    71    2.8   287      5.9   849.7    0.00       1    999.0
 127    5:00   47.7    68    1.4   340      2.8   849.8    0.00       2    999.0
 127    5:10   48.4    65    1.7   273      3.5   849.8    0.00       7    999.0
 127    5:20   48.7    65    2.6   266      5.0   849.8    0.00      22    999.0
 127    5:30   49.3    65    2.4   273      4.9   849.7    0.00      48    999.0
 127    5:40   51.6    61    0.6   288      2.3   849.8    0.00      81    999.0
 127    5:50   53.7    56    1.1   324      3.1   849.8    0.00     115    999.0
 127    6:00   53.6    58    1.1   309      2.9   849.9    0.00     146    999.0
 127    6:10   54.9    52    1.2    58      3.6   850.0    0.00     178    999.0
 127    6:20   55.9    50    1.5    57      3.4   850.0    0.00     210    999.0
 127    6:30   56.5    50    1.3    52      3.1   850.1    0.00     244    999.0
 127    6:40   57.3    48    1.9    65      4.4   850.1    0.00     279    999.0
 127    6:50   57.1    49    2.4    68      4.3   850.1    0.00     313    999.0
 127    7:00   56.9    48    3.0    84      5.7   850.2    0.00     348    999.0
 127    7:10   57.6    47    3.0    80      5.8   850.2    0.00     382    999.0
 127    7:20   58.7    45    2.4    89      4.3   850.2    0.00     416    999.0
 127    7:30   60.5    42    1.4    57      3.6   850.2    0.00     451    999.0
 127    7:40   60.5    43    2.6    88      5.0   850.2    0.00     485    999.0
 127    7:50   61.1    42    2.0    70      3.9   850.2    0.00     518    999.0
 127    8:00   62.9    40    2.0    86      4.7   850.1    0.00     550    999.0
 127    8:10   63.6    38    0.9     7      2.2   850.2    0.00     583    999.0
 127    8:20   64.5    38    1.5    80      4.5   850.1    0.00     615    999.0
 127    8:30   66.5    35    2.3   126      4.8   850.1    0.00     646    999.0
 127    8:40   66.9    33    2.9    92      5.9   849.9    0.00     676    999.0
 127    8:50   68.0    32    1.6    93      4.9   849.9    0.00     706    999.0
 127    9:00   68.5    33    2.4   118      5.8   849.9    0.00     734    999.0
 127    9:10   68.3    32    2.3   105      5.6   849.9    0.00     761    999.0
 127    9:20   69.6    30    3.1    83      6.0   849.8    0.00     788    999.0
 127    9:30   70.6    28    3.3    84      7.7   849.7    0.00     814    999.0
 127    9:40   71.0    26    4.0    80      7.0   849.6    0.00     839    999.0
 127    9:50   71.8    24    4.4    69      8.1   849.6    0.00     859    999.0
 127   10:00   73.2    22    3.6    52      9.3   849.6    0.00     881    999.0
 127   10:10   73.6    21    5.5   280     12.6   849.6    0.00     902    999.0
 127   10:20   73.7    21    5.7   269     13.0   849.7    0.00     919    999.0
 127   10:30   73.2    21    6.4   264     15.1   849.7    0.00     934    999.0
 127   10:40   73.2    21    8.0   288     16.7   849.6    0.00     947    999.0
 127   10:50   73.7    20    5.2   262     11.4   849.6    0.00     958    999.0
 127   11:00   74.6    20    4.8   247     14.4   849.6    0.00     972    999.0
 127   11:10   74.8    20    3.8   243     13.5   849.5    0.00     982    999.0
 127   11:20   75.5    19    4.0   279     12.4   849.4    0.00     990    999.0
 127   11:30   74.2    21    7.2   259     18.1   849.4    0.00     993    999.0
 127   11:40   74.3    20    6.2   272     19.7   849.3    0.00     997    999.0
 127   11:50   75.5    20    4.2   208     10.8   849.1    0.00    1000    999.0
 127   12:00   75.0    21    7.0   275     19.3   849.1    0.00     999    999.0
 127   12:10   74.8    20    5.9   312     14.1   849.0    0.00     999    999.0
 127   12:20   74.4    20    7.0   302     13.8   849.0    0.00     996    999.0
 127   12:30   75.7    20    6.3   282     13.4   848.9    0.00     995    999.0
 127   12:40   74.9    20    6.9   273     13.9   848.9    0.00     991    999.0
 127   12:50   74.6    20    7.3   281     16.1   848.8    0.00     984    999.0
 127   13:00   75.4    20    4.8   277     18.0   848.8    0.00     976    999.0
 127   13:10   75.9    20    4.9   233     11.4   848.8    0.00     970    999.0
 127   13:20   75.9    20    7.4   265     17.8   848.7    0.00     961    999.0
 127   13:30   75.5    20    6.7   257     15.7   848.6    0.00     949    999.0
 127   13:40   75.3    20    7.3   239     17.5   848.6    0.00     931    999.0
 127   13:50   75.4    20    8.5   233     18.9   848.5    0.00     914    999.0
 127   14:00   75.7    20    7.5   257     18.1   848.5    0.00     897    999.0
 127   14:10   75.1    20    7.3   240     16.9   848.5    0.00     875    999.0
 127   14:20   76.2    20    8.5   215     16.4   848.3    0.00     852    999.0
 127   14:30   74.8    21    8.3   241     19.9   848.2    0.00     816    999.0
 127   14:40   75.7    21    9.2   216     16.4   848.1    0.00     802    999.0
 127   14:50   75.8    21    7.5   190     16.6   848.1    0.00     782    999.0
 127   15:00   75.2    21    7.5   236     12.9   848.1    0.00     758    999.0
 127   15:10   76.2    22    4.7   215     13.2   848.1    0.00     730    999.0
 127   15:20   75.2    22    6.3   239     16.2   848.1    0.00     702    999.0
 127   15:30   74.2    23   10.2   224     18.0   848.0    0.00     673    999.0
 127   15:40   74.0    23    7.3   204     14.5   848.0    0.00     642    999.0
 127   15:50   74.1    23    7.4   222     14.4   847.9    0.00     613    999.0
 127   16:00   74.3    23    7.8   197     19.9   847.9    0.00     580    999.0
 127   16:10   73.7    24    7.3   225     14.5   848.0    0.00     548    999.0
 127   16:20   74.1    24    4.4   219     10.5   847.9    0.00     515    999.0
 127   16:30   74.6    23    4.2   214     16.0   847.9    0.00     481    999.0
 127   16:40   74.2    24    4.7   212     11.5   847.9    0.00     449    999.0
 127   16:50   73.6    24    5.7   207     13.2   847.9    0.00     415    999.0
 127   17:00   74.0    24    3.5   211      8.4   847.9    0.00     380    999.0
 127   17:10   73.0    23    4.0   215     11.5   848.0    0.00     341    999.0
 127   17:20   72.8    24    3.1   216      7.9   848.0    0.00     308    999.0
 127   17:30   72.6    25    3.2   208      7.4   848.1    0.00     273    999.0
 127   17:40   71.6    25    4.6   238      8.7   848.1    0.00     239    999.0
 127   17:50   71.3    25    3.0   292      9.8   848.1    0.00     206    999.0
 127   18:00   70.4    27    2.9   229      7.7   848.2    0.00      88    999.0
 127   18:10   67.0    31    2.1   280      5.7   848.3    0.00      24    999.0
 127   18:20   66.4    32    0.7   280      3.4   848.3    0.00      21    999.0
 127   18:30   65.6    32    1.6   208      4.5   848.4    0.00      19    999.0
 127   18:40   63.9    36    2.4   266      7.0   848.5    0.00      16    999.0
 127   18:50   64.4    35    3.4   252      7.2   848.6    0.00      12    999.0
 127   19:00   63.2    39    4.2   247      7.8   848.7    0.00       8    999.0
 127   19:10   60.9    44    5.6   250      9.7   848.8    0.00       4    999.0
 127   19:20   60.9    45    5.1   257      7.7   848.9    0.00       1    999.0
 127   19:30   61.7    45    4.7   246     13.2   848.9    0.00       0    999.0
 127   19:40   61.9    45    2.6   264      8.6   849.0    0.00       0    999.0
 127   19:50   62.5    44    2.3   335      6.6   849.1    0.00       0    999.0
 127   20:00   62.9    43    5.2   300     13.4   849.2    0.00       0    999.0
 127   20:10   62.0    44    3.4   212     13.6   849.3    0.00       0    999.0
 127   20:20   62.1    43    4.1    73      9.0   849.3    0.00       0    999.0
 127   20:30   61.8    43    3.4    66      8.0   849.4    0.00       0    999.0
 127   20:40   61.8    41    2.0   322      5.8   849.5    0.00       0    999.0
 127   20:50   62.3    38    2.2   156      4.5   849.5    0.00       0    999.0
 127   21:00   61.7    37    2.2   248      6.6   849.5    0.00       0    999.0
 127   21:10   61.2    37    2.8   189      6.2   849.4    0.00       0    999.0
 127   21:20   60.9    34    3.1    10      9.8   849.3    0.00       0    999.0
 127   21:30   62.2    25    2.9    94      8.6   849.2    0.00       0    999.0
 127   21:40   61.3    28    4.6    96      9.1   849.2    0.00       0    999.0
 127   21:50   60.2    30    3.0   140      7.2   849.3    0.00       0    999.0
 127   22:00   60.2    26    2.0   133      5.8   849.3    0.00       0    999.0
 127   22:10   58.9    30    2.5   239      5.3   849.4    0.00       0    999.0
 127   22:20   57.4    34    3.7   211      6.4   849.4    0.00       0    999.0
 127   22:30   57.2    34    2.1   254      5.3   849.5    0.00       0    999.0
 127   22:40   55.7    34    2.4   305      4.5   849.5    0.00       0    999.0
 127   22:50   55.3    35    3.3   304      4.3   849.5    0.00       0    999.0
 127   23:00   54.2    36    2.9   288      4.7   849.5    0.00       0    999.0
 127   23:10   53.7    36    2.7   299      4.5   849.4    0.00       0    999.0
 127   23:20   53.7    37    3.5   288      5.9   849.4    0.00       0    999.0
 127   23:30   52.1    42    4.5   282      6.6   849.4    0.00       0    999.0
 127   23:40   51.6    47    2.9   295      5.7   849.4    0.00       0    999.0
 127   23:50   51.8    46    2.9   289      5.7   849.5    0.00       0    999.0
 128    0:00   51.4    44    3.5   283      5.2   849.5    0.00       0    999.0
 128    0:10   50.9    46    3.0   284      5.3   849.4    0.00       0    999.0
 128    0:20   50.8    47    3.5   276      6.2   849.3    0.00       0    999.0
 128    0:30   49.9    48    4.4   277      6.7   849.2    0.00       0    999.0
 128    0:40   48.5    48    4.8   274      6.9   849.2    0.00       0    999.0
 128    0:50   48.2    46    5.5   268      7.7   849.1    0.00       0    999.0
 128    1:00   48.3    43    5.9   268      7.3   849.0    0.00       0    999.0
 128    1:10   48.5    50    4.5   278      6.8   849.0    0.00       0    999.0
 128    1:20   48.0    47    6.2   269      8.6   849.0    0.00       0    999.0
 128    1:30   49.3    46    5.7   270      8.5   849.1    0.00       0    999.0
 128    1:40   47.7    47    5.6   270      7.5   849.1    0.00       0    999.0
 128    1:50   47.3    48    5.5   273      7.5   849.0    0.00       0    999.0
 128    2:00   47.4    48    3.8   280      5.0   849.1    0.00       0    999.0
 128    2:10   47.6    49    3.4   280      5.3   849.2    0.00       0    999.0
 128    2:20   46.8    53    4.6   277      6.4   849.2    0.00       0    999.0
 128    2:30   47.9    50    4.7   278      7.6   849.2    0.00       0    999.0
 128    2:40   49.0    50    2.2   309      4.2   849.2    0.00       0    999.0

Return to Yerington, Nevada graphs page.


Western Regional Climate Center,wrcc@dri.edu